Time;durP1;ratioP1;P1;durP2;ratioP2;P2;SDS_P1;SDS_P2;PMS_P1;PMS_P2;Temp;Humidity;BMP_temperature;BMP_pressure;BME280_temperature;BME280_humidity;BME280_pressure;Samples;Min_cycle;Max_cycle;Signal;HPM_P1;HPM_P2
2023/09/26 00:02:25;;;;;;;3.83;2.77;;;;;;;14.58;100.00;101610.41;4985898;28;20469;-77
2023/09/26 00:04:51;;;;;;;5.00;3.00;;;;;;;12.98;100.00;101355.72;4988524;28;20452;-76
2023/09/26 00:07:17;;;;;;;6.53;2.90;;;;;;;14.21;100.00;101550.53;4988523;28;20429;-77
2023/09/26 00:09:43;;;;;;;5.70;2.73;;;;;;;13.59;100.00;101467.22;4988875;28;20277;-77
2023/09/26 00:12:08;;;;;;;5.20;3.07;;;;;;;14.07;100.00;101586.63;4987135;28;20543;-77
2023/09/26 00:14:34;;;;;;;5.27;3.07;;;;;;;13.59;100.00;101489.63;4987722;28;20194;-77
2023/09/26 00:17:00;;;;;;;6.00;3.10;;;;;;;14.93;100.00;101747.97;4987642;28;20190;-77
2023/09/26 00:19:25;;;;;;;5.10;3.17;;;;;;;13.43;100.00;101453.09;5002966;28;20186;-76
2023/09/26 00:21:51;;;;;;;5.80;3.00;;;;;;;14.19;100.00;101640.81;4987641;28;20213;-77
2023/09/26 00:24:16;;;;;;;4.50;2.80;;;;;;;13.64;100.00;101527.59;5002406;28;20421;-76
2023/09/26 00:26:42;;;;;;;4.23;2.87;;;;;;;13.70;100.00;101588.78;4987687;28;20194;-77
2023/09/26 00:29:07;;;;;;;4.40;3.00;;;;;;;15.00;100.00;101815.53;4988665;28;20672;-77
2023/09/26 00:31:33;;;;;;;4.90;2.70;;;;;;;13.32;100.00;101511.09;4985618;28;20242;-77
2023/09/26 00:33:58;;;;;;;5.00;3.43;;;;;;;13.50;100.00;101532.09;4986529;28;20641;-77
2023/09/26 00:36:24;;;;;;;4.50;2.73;;;;;;;13.63;100.00;101625.66;4987056;28;20560;-76
2023/09/26 00:38:50;;;;;;;5.40;2.93;;;;;;;12.89;100.00;101488.88;4987177;28;20210;-77
2023/09/26 00:41:15;;;;;;;5.77;2.77;;;;;;;13.14;100.00;101467.66;5001258;28;20186;-76
2023/09/26 00:43:41;;;;;;;5.90;2.93;;;;;;;13.90;100.00;101601.50;4986160;28;20472;-77
2023/09/26 00:46:08;;;;;;;6.13;3.23;;;;;;;13.21;100.00;101492.75;5001503;28;20731;-77
2023/09/26 00:48:35;;;;;;;4.10;2.97;;;;;;;13.93;100.00;101665.84;4986537;28;20705;-77
2023/09/26 00:51:02;;;;;;;4.40;2.53;;;;;;;12.96;100.00;101502.34;4987103;28;20451;-76
2023/09/26 00:53:30;;;;;;;4.73;2.93;;;;;;;14.14;100.00;101700.78;4985993;28;20467;-77
2023/09/26 00:55:58;;;;;;;4.43;3.00;;;;;;;14.01;100.00;101727.72;4987617;28;20803;-77
2023/09/26 00:58:25;;;;;;;5.27;3.40;;;;;;;13.16;100.00;101532.91;4987050;28;20444;-77
2023/09/26 01:00:51;;;;;;;5.90;3.63;;;;;;;13.67;100.00;101726.66;4986357;28;20475;-77
2023/09/26 01:03:17;;;;;;;5.40;3.43;;;;;;;12.55;100.00;101538.94;5000638;28;20492;-76
2023/09/26 01:05:42;;;;;;;5.87;3.00;;;;;;;13.46;100.00;101570.44;4987826;28;20530;-77
2023/09/26 01:08:09;;;;;;;7.60;3.30;;;;;;;13.71;100.00;101679.44;4986428;28;20299;-77
2023/09/26 01:10:36;;;;;;;4.33;3.27;;;;;;;13.20;100.00;101600.72;4987595;28;20240;-77
2023/09/26 01:13:02;;;;;;;4.57;3.30;;;;;;;13.22;100.00;101610.28;4987151;28;20472;-77
2023/09/26 01:15:38;;;;;;;5.83;3.37;;;;;;;14.78;100.00;101823.78;4985761;28;20469;-77
2023/09/26 01:18:08;;;;;;;5.57;3.60;;;;;;;13.54;100.00;101716.66;5002053;28;20456;-77
2023/09/26 01:20:34;;;;;;;5.63;3.37;;;;;;;12.85;100.00;101566.50;4987508;28;20451;-77
2023/09/26 01:23:07;;;;;;;6.53;4.20;;;;;;;12.59;100.00;101534.84;5002892;28;20535;-77
2023/09/26 01:25:34;;;;;;;5.60;3.00;;;;;;;13.32;100.00;101658.44;5001988;28;20440;-77
2023/09/26 01:28:05;;;;;;;5.27;3.00;;;;;;;12.36;100.00;101526.16;4985054;28;20531;-76
2023/09/26 01:30:31;;;;;;;5.07;3.60;;;;;;;12.72;100.00;101601.38;5001400;28;20441;-77
2023/09/26 01:32:57;;;;;;;5.80;3.70;;;;;;;12.02;100.00;101420.16;4985216;28;20461;-77
2023/09/26 01:35:22;;;;;;;8.00;4.00;;;;;;;12.32;100.00;101544.53;4987930;28;20469;-77
2023/09/26 01:37:50;;;;;;;5.40;3.30;;;;;;;14.37;100.00;101856.97;4985905;28;20185;-76
2023/09/26 01:40:16;;;;;;;6.93;3.10;;;;;;;12.83;100.00;101579.31;5001084;28;20188;-77
2023/09/26 01:42:41;;;;;;;5.40;3.43;;;;;;;11.89;100.00;101415.50;4985813;28;20464;-77
2023/09/26 01:45:07;;;;;;;8.60;3.23;;;;;;;13.10;100.00;101604.59;5000114;28;20209;-76
2023/09/26 01:47:50;;;;;;;5.23;3.50;;;;;;;12.50;100.00;101522.56;4983894;28;20206;-76
2023/09/26 01:50:16;;;;;;;4.47;3.23;;;;;;;13.44;100.00;101664.13;4986331;28;20455;-77
2023/09/26 01:52:43;;;;;;;4.63;3.30;;;;;;;12.93;100.00;101597.84;4986558;28;20476;-77
2023/09/26 01:55:13;;;;;;;5.23;3.43;;;;;;;12.29;100.00;101431.13;4985300;28;20448;-76
2023/09/26 01:57:38;;;;;;;5.23;3.30;;;;;;;12.74;100.00;101523.16;4984634;28;20437;-77
2023/09/26 02:00:14;;;;;;;4.67;3.30;;;;;;;13.36;100.00;101629.22;5001164;28;20507;-77
2023/09/26 02:02:41;;;;;;;4.03;3.03;;;;;;;12.72;100.00;101538.66;4985755;28;20209;-77
2023/09/26 02:05:08;;;;;;;4.30;3.33;;;;;;;12.75;100.00;101511.34;4982458;28;20440;-77
2023/09/26 02:07:34;;;;;;;8.57;3.90;;;;;;;12.25;100.00;101454.88;4984455;28;20480;-77
2023/09/26 02:09:59;;;;;;;5.50;4.10;;;;;;;11.88;100.00;101451.47;4984958;28;20451;-77
2023/09/26 02:12:25;;;;;;;6.07;4.00;;;;;;;13.07;100.00;101687.63;4985791;28;20461;-77
2023/09/26 02:14:50;;;;;;;5.90;3.60;;;;;;;12.34;100.00;101534.41;4986323;28;20200;-77
2023/09/26 02:17:16;;;;;;;5.20;3.90;;;;;;;12.48;100.00;101540.75;4985017;28;20186;-77
2023/09/26 02:19:42;;;;;;;5.40;3.67;;;;;;;11.68;100.00;101402.03;4986495;28;20221;-76
2023/09/26 02:22:08;;;;;;;5.90;4.20;;;;;;;12.33;100.00;101558.84;4985984;28;20212;-76
2023/09/26 02:24:34;;;;;;;4.80;3.30;;;;;;;12.30;100.00;101533.16;4985729;28;20441;-77
2023/09/26 02:26:59;;;;;;;9.87;4.87;;;;;;;12.43;100.00;101568.22;4985100;28;20972;-77
2023/09/26 02:29:27;;;;;;;6.50;3.90;;;;;;;12.55;100.00;101565.00;4987330;28;20225;-77
2023/09/26 02:31:53;;;;;;;5.77;4.03;;;;;;;11.73;100.00;101462.25;4984536;28;20219;-77
2023/09/26 02:34:19;;;;;;;4.20;3.00;;;;;;;11.57;100.00;101486.69;4986762;28;20445;-76
2023/09/26 02:36:44;;;;;;;7.67;4.50;;;;;;;12.06;100.00;101614.19;4984663;28;20212;-77
2023/09/26 02:39:10;;;;;;;6.70;4.67;;;;;;;11.22;100.00;101426.53;4985359;28;20240;-77
2023/09/26 02:41:36;;;;;;;6.17;4.23;;;;;;;10.90;100.00;101360.69;4984327;28;20201;-77
2023/09/26 02:44:03;;;;;;;5.40;3.73;;;;;;;11.99;100.00;101491.28;4985148;28;20193;-77
2023/09/26 02:46:29;;;;;;;6.00;4.30;;;;;;;11.47;100.00;101465.47;4983436;28;20595;-77
2023/09/26 02:48:54;;;;;;;5.63;4.03;;;;;;;10.96;100.00;101333.94;4983346;28;20479;-77
2023/09/26 02:51:20;;;;;;;5.43;3.83;;;;;;;11.77;100.00;101500.31;4983938;28;20189;-77
2023/09/26 02:53:45;;;;;;;6.50;4.30;;;;;;;11.75;100.00;101489.75;4984760;28;21255;-77
2023/09/26 02:56:11;;;;;;;6.10;4.63;;;;;;;10.77;100.00;101391.72;4984946;28;20186;-77
2023/09/26 02:58:36;;;;;;;5.63;4.10;;;;;;;12.69;100.00;101642.16;4986582;28;20652;-77
2023/09/26 03:01:03;;;;;;;6.70;4.40;;;;;;;12.79;100.00;101720.75;5000433;28;20193;-77
2023/09/26 03:03:29;;;;;;;4.67;3.43;;;;;;;10.48;100.00;101265.69;4985093;28;21754;-77
2023/09/26 03:05:55;;;;;;;5.57;3.90;;;;;;;10.99;100.00;101316.63;4986654;28;20449;-77
2023/09/26 03:08:21;;;;;;;6.17;3.50;;;;;;;12.62;100.00;101531.75;4984305;28;20476;-77
2023/09/26 03:10:47;;;;;;;5.87;4.07;;;;;;;11.62;100.00;101443.94;4984867;28;20200;-77
2023/09/26 03:13:12;;;;;;;6.47;4.40;;;;;;;11.31;100.00;101437.00;4986001;28;20217;-77
2023/09/26 03:15:38;;;;;;;5.37;3.57;;;;;;;11.44;100.00;101439.00;4983632;28;20197;-76
2023/09/26 03:18:04;;;;;;;5.80;4.23;;;;;;;11.38;100.00;101469.31;4984255;28;20320;-77
2023/09/26 03:20:29;;;;;;;7.30;4.30;;;;;;;11.03;100.00;101388.53;4984705;28;20181;-76
2023/09/26 03:22:55;;;;;;;5.57;4.30;;;;;;;11.47;100.00;101432.41;4984946;28;20534;-77
2023/09/26 03:25:20;;;;;;;6.60;4.10;;;;;;;10.35;100.00;101301.19;4985847;28;20185;-76
2023/09/26 03:27:47;;;;;;;6.67;4.20;;;;;;;12.20;100.00;101611.44;4987793;28;20205;-77
2023/09/26 03:30:16;;;;;;;6.23;4.57;;;;;;;11.13;100.00;101393.59;4984959;28;21561;-77
2023/09/26 03:32:41;;;;;;;7.53;4.60;;;;;;;11.89;100.00;101568.72;5002976;28;20460;-76
2023/09/26 03:35:09;;;;;;;7.07;4.80;;;;;;;11.68;100.00;101477.28;4987113;28;20495;-77
2023/09/26 03:37:35;;;;;;;6.40;4.20;;;;;;;10.85;100.00;101321.03;4988936;28;20184;-77
2023/09/26 03:40:01;;;;;;;5.70;4.10;;;;;;;11.99;100.00;101579.16;4989939;28;20543;-76
2023/09/26 03:42:26;;;;;;;7.73;4.80;;;;;;;11.34;100.00;101502.94;4988930;28;20559;-77
2023/09/26 03:44:53;;;;;;;6.80;4.73;;;;;;;11.51;100.00;101456.03;5004183;28;20572;-77
2023/09/26 03:47:18;;;;;;;6.50;4.50;;;;;;;11.49;100.00;101431.19;4990660;28;20186;-77
2023/09/26 03:49:44;;;;;;;6.80;4.20;;;;;;;11.26;100.00;101435.91;4989791;28;20879;-77
2023/09/26 03:52:09;;;;;;;6.93;4.17;;;;;;;11.21;100.00;101441.00;4989189;28;20214;-77
2023/09/26 03:54:35;;;;;;;5.93;4.50;;;;;;;11.84;100.00;101511.16;4988715;28;20268;-77
2023/09/26 03:57:01;;;;;;;8.93;4.80;;;;;;;11.02;100.00;101400.31;4988562;28;20244;-76
2023/09/26 03:59:26;;;;;;;6.17;4.27;;;;;;;11.21;100.00;101475.91;4989891;28;20555;-77
2023/09/26 04:01:52;;;;;;;6.33;4.37;;;;;;;11.00;100.00;101423.81;4990291;28;20475;-77
2023/09/26 04:04:18;;;;;;;6.20;5.27;;;;;;;11.12;100.00;101394.63;5005717;28;20280;-76
2023/09/26 04:06:43;;;;;;;4.90;3.93;;;;;;;10.59;100.00;101357.25;4989765;28;20186;-76
2023/09/26 04:09:09;;;;;;;6.50;4.23;;;;;;;11.37;100.00;101482.91;4990083;28;20283;-76
2023/09/26 04:11:35;;;;;;;5.80;4.90;;;;;;;11.30;100.00;101472.09;4988664;28;20182;-77
2023/09/26 04:14:00;;;;;;;6.37;4.57;;;;;;;11.68;100.00;101529.16;4989383;28;20198;-76
2023/09/26 04:16:26;;;;;;;6.00;4.37;;;;;;;12.07;100.00;101570.16;4988901;28;20275;-76
2023/09/26 04:18:51;;;;;;;6.93;5.00;;;;;;;10.80;100.00;101399.41;4989600;28;20185;-77
2023/09/26 04:21:17;;;;;;;6.77;4.30;;;;;;;11.52;100.00;101532.09;4988391;28;20193;-77
2023/09/26 04:23:42;;;;;;;5.70;4.23;;;;;;;10.43;100.00;101313.69;4989820;28;20224;-76
2023/09/26 04:26:13;;;;;;;8.60;5.13;;;;;;;11.37;100.00;101497.19;4988942;28;20719;-77
2023/09/26 04:28:39;;;;;;;6.40;4.80;;;;;;;11.13;100.00;101482.19;4987589;28;20331;-77
2023/09/26 04:31:05;;;;;;;6.67;4.80;;;;;;;12.05;100.00;101585.66;4986742;28;20520;-77
2023/09/26 04:33:30;;;;;;;6.10;4.33;;;;;;;11.44;100.00;101533.00;5003278;28;20841;-76
2023/09/26 04:35:57;;;;;;;6.13;4.37;;;;;;;11.93;100.00;101593.38;4985756;28;20247;-77
2023/09/26 04:38:23;;;;;;;6.87;5.27;;;;;;;11.50;100.00;101550.22;4986253;28;20263;-77
2023/09/26 04:40:49;;;;;;;6.77;5.47;;;;;;;11.21;100.00;101505.44;4983387;28;21271;-77
2023/09/26 04:43:15;;;;;;;6.70;4.50;;;;;;;10.37;100.00;101301.84;4986937;28;20691;-77
2023/09/26 04:45:40;;;;;;;5.77;4.40;;;;;;;12.03;100.00;101598.44;4986054;28;20263;-77
2023/09/26 04:48:06;;;;;;;6.83;5.30;;;;;;;11.27;100.00;101512.75;4987096;28;20478;-76
2023/09/26 04:50:31;;;;;;;7.40;5.50;;;;;;;10.26;100.00;101300.44;4987119;28;20189;-77
2023/09/26 04:52:59;;;;;;;7.10;4.83;;;;;;;11.38;100.00;101463.94;4983973;28;20253;-76
2023/09/26 04:55:24;;;;;;;6.50;4.67;;;;;;;11.09;100.00;101475.56;5002382;28;20193;-77
2023/09/26 04:57:50;;;;;;;5.63;4.27;;;;;;;11.30;100.00;101505.16;4987037;28;20499;-76
2023/09/26 05:00:19;;;;;;;6.03;4.63;;;;;;;11.14;100.00;101483.03;4986158;28;20186;-77
2023/09/26 05:02:51;;;;;;;8.00;5.00;;;;;;;10.82;100.00;101405.41;4985190;28;20863;-77
2023/09/26 05:05:16;;;;;;;7.50;5.20;;;;;;;10.36;100.00;101322.47;4987929;28;20846;-76
2023/09/26 05:07:43;;;;;;;7.00;5.37;;;;;;;10.35;100.00;101299.34;5002549;28;20480;-77
2023/09/26 05:10:09;;;;;;;7.70;4.70;;;;;;;10.35;100.00;101314.59;5002952;28;20527;-76
2023/09/26 05:12:40;;;;;;;6.97;5.10;;;;;;;10.92;100.00;101444.56;4986234;28;20527;-77
2023/09/26 05:15:15;;;;;;;7.47;5.57;;;;;;;10.92;100.00;101447.25;4986882;28;20448;-77
2023/09/26 05:17:42;;;;;;;8.00;5.70;;;;;;;11.68;100.00;101608.94;4987812;28;20567;-76
2023/09/26 05:20:11;;;;;;;6.97;5.60;;;;;;;11.74;100.00;101581.31;4986655;28;20487;-77
2023/09/26 05:22:41;;;;;;;7.17;5.60;;;;;;;12.29;100.00;101673.19;4986669;28;20465;-77
2023/09/26 05:25:07;;;;;;;8.90;5.45;;;;;;;10.87;100.00;101466.56;4985957;28;20455;-76
2023/09/26 05:27:33;;;;;;;7.77;6.20;;;;;;;11.88;100.00;101585.03;4987934;28;20432;-77
2023/09/26 05:29:59;;;;;;;7.87;5.50;;;;;;;11.46;100.00;101532.84;5002527;28;20539;-77
2023/09/26 05:32:25;;;;;;;7.40;6.10;;;;;;;9.93;100.00;101366.97;4986623;28;20540;-77
2023/09/26 05:34:50;;;;;;;9.13;6.40;;;;;;;11.06;100.00;101543.88;5003484;28;20460;-77
2023/09/26 05:37:16;;;;;;;10.37;6.60;;;;;;;12.33;100.00;101726.44;4987193;28;20272;-76
2023/09/26 05:39:42;;;;;;;6.40;5.33;;;;;;;10.09;100.00;101364.09;4985999;28;20556;-77
2023/09/26 05:42:10;;;;;;;8.03;5.90;;;;;;;9.67;100.00;101295.84;4984621;28;20205;-77
2023/09/26 05:44:36;;;;;;;8.00;5.97;;;;;;;11.59;100.00;101498.06;4987983;28;20425;-77
2023/09/26 05:47:02;;;;;;;9.50;5.93;;;;;;;11.01;100.00;101393.25;4988462;28;20433;-76
2023/09/26 05:49:28;;;;;;;8.40;5.87;;;;;;;10.84;100.00;101508.03;4988228;28;20461;-76
2023/09/26 05:51:53;;;;;;;6.67;5.37;;;;;;;10.33;100.00;101335.44;4987917;28;20708;-77
2023/09/26 05:54:19;;;;;;;8.30;5.83;;;;;;;12.17;100.00;101707.81;4988315;28;20636;-77
2023/09/26 05:56:44;;;;;;;6.67;5.07;;;;;;;10.79;100.00;101395.06;4987472;28;20236;-77
2023/09/26 05:59:10;;;;;;;6.70;5.70;;;;;;;11.02;100.00;101483.53;4988060;28;20235;-77
2023/09/26 06:01:35;;;;;;;7.23;5.73;;;;;;;11.19;100.00;101465.34;4985215;28;20199;-76
2023/09/26 06:04:07;;;;;;;9.00;5.60;;;;;;;12.53;100.00;101666.66;4987386;28;20186;-77
2023/09/26 06:06:33;;;;;;;8.33;5.40;;;;;;;11.69;100.00;101503.16;5001869;28;20177;-76
2023/09/26 06:08:59;;;;;;;8.97;7.13;;;;;;;12.39;100.00;101604.63;4986024;28;20500;-77
2023/09/26 06:11:24;;;;;;;9.10;7.10;;;;;;;10.98;100.00;101357.91;5002405;28;20228;-77
2023/09/26 06:13:52;;;;;;;7.50;6.37;;;;;;;11.74;100.00;101560.69;4986841;28;20248;-77
2023/09/26 06:16:19;;;;;;;12.30;5.83;;;;;;;11.96;100.00;101534.66;4984999;28;20808;-77
2023/09/26 06:18:44;;;;;;;8.40;5.93;;;;;;;11.07;100.00;101359.47;4986423;28;20437;-77
2023/09/26 06:21:10;;;;;;;7.60;5.03;;;;;;;11.27;100.00;101416.91;4985274;28;20440;-77
2023/09/26 06:23:36;;;;;;;8.00;5.97;;;;;;;11.81;100.00;101482.81;4984696;28;20206;-76
2023/09/26 06:26:02;;;;;;;8.50;6.70;;;;;;;12.07;100.00;101533.34;4984794;28;20201;-76
2023/09/26 06:28:28;;;;;;;7.73;5.70;;;;;;;11.59;100.00;101436.25;4985078;28;20673;-76
2023/09/26 06:30:54;;;;;;;7.33;5.83;;;;;;;11.29;100.00;101451.63;4984419;28;20200;-76
2023/09/26 06:33:20;;;;;;;8.20;6.40;;;;;;;12.28;100.00;101609.69;4986203;28;20462;-77
2023/09/26 06:35:45;;;;;;;8.23;5.43;;;;;;;11.14;100.00;101411.41;5001365;28;20566;-77
2023/09/26 06:38:11;;;;;;;9.33;5.50;;;;;;;12.92;100.00;101711.13;4986882;28;20433;-77
2023/09/26 06:40:37;;;;;;;8.00;5.23;;;;;;;11.70;100.00;101478.75;4987478;28;20636;-76
2023/09/26 06:43:02;;;;;;;7.63;5.80;;;;;;;12.11;100.00;101552.59;4985425;28;20472;-77
2023/09/26 06:45:29;;;;;;;7.77;5.50;;;;;;;12.45;100.00;101624.53;4988256;28;20205;-77
2023/09/26 06:47:55;;;;;;;8.17;5.70;;;;;;;11.85;100.00;101537.84;4986468;28;20280;-77
2023/09/26 06:50:21;;;;;;;8.37;6.07;;;;;;;11.49;100.00;101436.56;4987599;28;21228;-77
2023/09/26 06:52:47;;;;;;;8.87;5.67;;;;;;;11.43;100.00;101458.00;4984704;28;20213;-76
2023/09/26 06:55:13;;;;;;;6.83;5.30;;;;;;;12.30;100.00;101626.47;4986036;28;20473;-77
2023/09/26 06:57:39;;;;;;;7.73;5.70;;;;;;;13.15;100.00;101746.75;4988039;28;20453;-77
2023/09/26 07:00:11;;;;;;;7.40;5.90;;;;;;;11.49;100.00;101476.03;4988113;28;20625;-76
2023/09/26 07:02:36;;;;;;;7.00;5.50;;;;;;;11.78;100.00;101550.38;4987567;28;20432;-77
2023/09/26 07:05:02;;;;;;;8.00;6.20;;;;;;;11.28;100.00;101517.09;4990439;28;20807;-77
2023/09/26 07:07:31;;;;;;;8.13;6.20;;;;;;;12.92;100.00;101746.13;4990476;28;20198;-77
2023/09/26 07:09:57;;;;;;;8.03;5.37;;;;;;;12.03;100.00;101488.19;5005646;28;20633;-76
2023/09/26 07:12:26;;;;;;;8.83;6.20;;;;;;;12.63;100.00;101686.00;4988778;28;21064;-77
2023/09/26 07:14:51;;;;;;;8.00;5.53;;;;;;;11.98;100.00;101575.66;4991276;28;20456;-76
2023/09/26 07:17:17;;;;;;;7.67;5.83;;;;;;;12.64;100.00;101693.03;4990932;28;20439;-77
2023/09/26 07:19:42;;;;;;;7.57;5.70;;;;;;;11.88;100.00;101531.28;4990942;28;20473;-77
2023/09/26 07:22:08;;;;;;;7.63;6.20;;;;;;;14.01;100.00;101916.53;4989364;28;20221;-77
2023/09/26 07:24:33;;;;;;;7.00;5.80;;;;;;;13.85;100.00;101889.81;4991754;28;20205;-77
2023/09/26 07:26:59;;;;;;;7.27;6.47;;;;;;;11.70;100.00;101590.78;4990397;28;20786;-77
2023/09/26 07:29:25;;;;;;;8.50;6.07;;;;;;;12.32;100.00;101629.78;4989929;28;20602;-77
2023/09/26 07:31:52;;;;;;;7.97;6.70;;;;;;;12.63;100.00;101633.00;4990830;28;20213;-77
2023/09/26 07:34:17;;;;;;;10.50;5.83;;;;;;;12.15;100.00;101467.81;5005313;28;20192;-77
2023/09/26 07:36:43;;;;;;;8.23;6.23;;;;;;;12.58;100.00;101576.25;4989143;28;20433;-77
2023/09/26 07:39:08;;;;;;;6.60;5.30;;;;;;;13.30;100.00;101727.84;4988364;28;20217;-77
2023/09/26 07:41:34;;;;;;;9.53;6.47;;;;;;;12.70;100.00;101669.91;4988522;28;20205;-77
2023/09/26 07:43:59;;;;;;;8.03;5.77;;;;;;;15.10;100.00;102095.13;4989875;28;20190;-77
2023/09/26 07:46:25;;;;;;;8.10;6.00;;;;;;;13.22;100.00;101814.16;4991754;28;20221;-77
2023/09/26 07:48:50;;;;;;;10.73;7.60;;;;;;;13.69;100.00;101964.56;4990563;28;20218;-77
2023/09/26 07:51:16;;;;;;;7.63;6.10;;;;;;;14.13;100.00;102052.56;4990126;28;20272;-77
2023/09/26 07:53:42;;;;;;;8.50;6.27;;;;;;;13.26;100.00;101917.88;4988794;28;20210;-77
2023/09/26 07:56:08;;;;;;;7.00;4.77;;;;;;;13.27;100.00;101896.13;4987840;28;20190;-77
2023/09/26 07:58:33;;;;;;;6.77;5.50;;;;;;;13.87;100.00;102028.84;5004647;28;20471;-77
2023/09/26 08:01:00;;;;;;;7.70;5.53;;;;;;;14.08;100.00;102083.84;4988880;28;20244;-77
2023/09/26 08:03:26;;;;;;;9.47;5.43;;;;;;;14.24;100.00;102099.78;4987924;28;20631;-77
2023/09/26 08:06:02;;;;;;;8.23;6.03;;;;;;;12.77;100.00;101853.88;5003597;28;20444;-77
2023/09/26 08:08:29;;;;;;;11.60;5.00;;;;;;;13.66;100.00;101991.09;4989553;28;20551;-77
2023/09/26 08:10:56;;;;;;;6.30;4.70;;;;;;;13.65;100.00;102006.41;5004281;28;20441;-76
2023/09/26 08:13:22;;;;;;;5.40;4.40;;;;;;;13.66;100.00;101991.09;4988705;28;20464;-77
2023/09/26 08:15:47;;;;;;;8.07;5.43;;;;;;;15.27;100.00;102400.25;4988506;28;20455;-76
2023/09/26 08:18:13;;;;;;;6.30;4.80;;;;;;;13.27;100.00;102119.75;4989805;28;20182;-77
2023/09/26 08:20:38;;;;;;;7.27;5.53;;;;;;;13.81;100.00;102221.09;4991169;28;20628;-76
2023/09/26 08:23:05;;;;;;;8.50;6.50;;;;;;;14.56;100.00;102410.81;4987817;28;20567;-77
2023/09/26 08:25:32;;;;;;;6.97;4.83;;;;;;;14.01;100.00;102248.31;4989247;28;20683;-77
2023/09/26 08:27:58;;;;;;;6.37;5.03;;;;;;;14.71;100.00;102341.44;4989576;28;20823;-77
2023/09/26 08:30:23;;;;;;;6.00;4.70;;;;;;;13.92;100.00;102174.75;4990007;28;20464;-77
2023/09/26 08:32:49;;;;;;;8.03;5.67;;;;;;;13.17;100.00;102124.56;4986573;28;20683;-77
2023/09/26 08:35:14;;;;;;;8.30;6.20;;;;;;;15.35;100.00;102555.06;4990435;28;20268;-77
2023/09/26 08:37:40;;;;;;;6.97;5.20;;;;;;;13.65;100.00;102234.75;4989889;28;20200;-77
2023/09/26 08:40:11;;;;;;;7.10;4.70;;;;;;;16.35;100.00;102660.94;4989031;28;20232;-77
2023/09/26 08:42:40;;;;;;;6.93;4.50;;;;;;;14.30;100.00;102325.72;5005381;28;20507;-77
2023/09/26 08:45:06;;;;;;;6.70;5.10;;;;;;;14.31;100.00;102348.16;4988066;28;20446;-77
2023/09/26 08:47:33;;;;;;;5.97;4.33;;;;;;;15.33;100.00;102494.94;4990259;28;20433;-77
2023/09/26 08:49:59;;;;;;;7.55;6.00;;;;;;;14.90;100.00;102445.34;4987931;28;20448;-77
2023/09/26 08:52:25;;;;;;;7.23;4.97;;;;;;;15.33;100.00;102418.38;5004790;28;20452;-77
2023/09/26 08:54:50;;;;;;;6.33;4.10;;;;;;;15.00;100.00;102355.88;4990080;28;20188;-77
2023/09/26 08:57:18;;;;;;;5.97;3.70;;;;;;;14.89;100.00;102354.50;4987744;28;20188;-77
2023/09/26 08:59:47;;;;;;;8.07;6.30;;;;;;;14.86;100.00;102406.22;5003791;28;20182;-77
2023/09/26 09:02:14;;;;;;;5.80;5.10;;;;;;;14.65;100.00;102345.72;4987560;28;20492;-76
2023/09/26 09:04:43;;;;;;;6.10;4.73;;;;;;;15.25;100.00;102451.81;4988182;28;20433;-76
2023/09/26 09:07:10;;;;;;;8.83;6.70;;;;;;;14.78;100.00;102406.31;4987434;28;20456;-77
2023/09/26 09:09:36;;;;;;;4.80;3.70;;;;;;;14.64;100.00;102311.66;4988539;28;20962;-77
2023/09/26 09:12:02;;;;;;;5.77;4.60;;;;;;;15.31;100.00;102423.19;4987009;28;20524;-77
2023/09/26 09:14:33;;;;;;;8.97;5.73;;;;;;;16.22;100.00;102624.53;4987641;28;21105;-77
2023/09/26 09:16:58;;;;;;;8.83;5.60;;;;;;;15.55;100.00;102492.28;4989144;28;20186;-77
2023/09/26 09:19:48;;;;;;;6.90;5.83;;;;;;;16.93;100.00;102738.41;5001433;28;20429;-77
2023/09/26 09:22:18;;;;;;;6.07;4.27;;;;;;;15.33;100.00;102450.84;4989263;28;20641;-77
2023/09/26 09:24:50;;;;;;;6.97;4.30;;;;;;;15.97;100.00;102551.03;4989484;28;20503;-77
2023/09/26 09:27:16;;;;;;;5.90;4.27;;;;;;;15.30;100.00;102451.22;4985969;28;20992;-77
2023/09/26 09:29:41;;;;;;;6.63;4.63;;;;;;;15.76;100.00;102538.28;4988570;28;20568;-77
2023/09/26 09:32:07;;;;;;;5.63;4.23;;;;;;;14.82;100.00;102361.72;4988015;28;20291;-77
2023/09/26 09:34:34;;;;;;;7.30;5.40;;;;;;;15.64;100.00;102526.28;4988073;28;20177;-77
2023/09/26 09:37:00;;;;;;;7.30;4.70;;;;;;;15.09;100.00;102423.13;4989412;28;21382;-76
2023/09/26 09:39:26;;;;;;;7.00;5.17;;;;;;;15.67;100.00;102520.47;4986817;28;20525;-77
2023/09/26 09:41:57;;;;;;;7.20;4.83;;;;;;;14.55;100.00;102317.34;4987243;28;20201;-77
2023/09/26 09:44:23;;;;;;;7.27;5.80;;;;;;;15.77;100.00;102544.56;5000683;28;20193;-77
2023/09/26 09:46:55;;;;;;;8.40;5.90;;;;;;;15.95;100.00;102573.88;4987204;28;20434;-76
2023/09/26 09:49:22;;;;;;;6.30;4.60;;;;;;;15.49;100.00;102458.72;4988681;28;20578;-77
2023/09/26 09:51:47;;;;;;;7.93;5.90;;;;;;;14.94;100.00;102441.25;4987278;28;20448;-77
2023/09/26 09:54:15;;;;;;;6.60;4.97;;;;;;;15.20;100.00;102454.22;4987565;28;20445;-77
2023/09/26 09:56:45;;;;;;;6.97;5.63;;;;;;;16.72;100.00;102635.41;4987372;28;20271;-77
2023/09/26 09:59:13;;;;;;;6.47;4.83;;;;;;;16.58;100.00;102623.66;4988553;28;20908;-77
2023/09/26 10:01:43;;;;;;;6.30;4.53;;;;;;;17.16;100.00;102726.50;4986436;28;20441;-77
2023/09/26 10:04:09;;;;;;;6.60;5.37;;;;;;;15.98;100.00;102563.50;5003030;28;20781;-76
2023/09/26 10:06:36;;;;;;;7.50;5.17;;;;;;;15.73;100.00;102505.38;4987729;28;20822;-77
2023/09/26 10:09:03;;;;;;;5.93;4.17;;;;;;;15.94;100.00;102491.88;5003179;28;20500;-77
2023/09/26 10:11:30;;;;;;;6.67;4.93;;;;;;;16.68;100.00;102605.16;4988391;28;20798;-77
2023/09/26 10:13:58;;;;;;;6.90;4.90;;;;;;;16.99;100.00;102631.09;4988099;28;20440;-77
2023/09/26 10:16:25;;;;;;;6.17;4.70;;;;;;;17.04;100.00;102620.47;4986752;28;20428;-76
2023/09/26 10:21:25;;;;;;;5.20;3.93;;;;;;;18.05;100.00;102761.09;4970089;28;20493;-75
2023/09/26 10:24:16;;;;;;;6.33;3.83;;;;;;;16.40;100.00;102490.56;4972774;28;20421;-74
2023/09/26 10:26:48;;;;;;;5.30;3.70;;;;;;;16.73;100.00;102536.84;4971111;28;20587;-74
2023/09/26 10:29:14;;;;;;;6.27;3.60;;;;;;;18.15;100.00;102742.56;4972452;28;20464;-74
2023/09/26 10:31:41;;;;;;;5.90;4.07;;;;;;;15.57;100.00;102309.84;4972044;28;20457;-75
2023/09/26 10:34:07;;;;;;;5.80;4.07;;;;;;;17.79;100.00;102683.94;4970384;28;20178;-75
2023/09/26 10:36:37;;;;;;;6.73;4.73;;;;;;;16.88;100.00;102487.97;4971964;28;20504;-75
2023/09/26 10:39:07;;;;;;;5.70;3.10;;;;;;;16.36;100.00;102402.63;4973283;28;20430;-74
2023/09/26 10:41:33;;;;;;;5.00;3.83;;;;;;;16.58;100.00;102438.59;4974779;28;20412;-75
2023/09/26 10:43:59;;;;;;;5.50;3.60;;;;;;;16.54;100.00;102438.16;4974559;28;20434;-75
2023/09/26 10:46:25;;;;;;;5.27;3.50;;;;;;;16.40;100.00;102431.84;4975305;28;20425;-74
2023/09/26 10:48:51;;;;;;;6.03;3.13;;;;;;;15.44;100.00;102261.06;4976259;28;20473;-74
2023/09/26 10:51:19;;;;;;;3.93;2.50;;;;;;;17.22;100.00;102565.72;4975791;28;20441;-75
2023/09/26 10:53:45;;;;;;;3.30;2.07;;;;;;;16.43;100.00;102408.91;4975362;28;20842;-74
2023/09/26 10:56:11;;;;;;;4.63;2.60;;;;;;;18.16;100.00;102675.50;4975721;28;20448;-74
2023/09/26 10:58:36;;;;;;;4.63;3.17;;;;;;;16.42;100.00;102410.78;4975017;28;20189;-75
2023/09/26 11:01:02;;;;;;;6.20;3.97;;;;;;;17.91;100.00;102612.78;4975886;28;20517;-74
2023/09/26 11:03:30;;;;;;;6.33;3.80;;;;;;;15.80;100.00;102247.41;4976756;28;20206;-74
2023/09/26 11:05:57;;;;;;;5.00;3.40;;;;;;;18.65;100.00;102686.03;4974441;28;20249;-75
2023/09/26 11:08:23;;;;;;;4.50;2.70;;;;;;;16.84;100.00;102314.13;4975432;28;20540;-74
2023/09/26 11:10:49;;;;;;;4.97;3.20;;;;;;;16.60;100.00;102230.66;4975243;28;20427;-74
2023/09/26 11:13:16;;;;;;;6.80;3.03;;;;;;;18.95;100.00;102609.53;4976350;28;20668;-74
2023/09/26 11:15:44;;;;;;;7.10;3.57;;;;;;;18.14;100.00;102509.22;4988915;28;20190;-74
2023/09/26 11:18:14;;;;;;;4.17;2.63;;;;;;;17.86;100.00;102441.56;4974736;28;20413;-74